Terminal Aerodrome Forecast
Issued by NWS Louisville, KY

Home | Current Version | Previous Version | Text Only | Print | Product List | Glossary On
Versions: 1 2 3 4 5 6 7 8 9 10 11 12 13 14 15
193
FTUS43 KLMK 132320
TAFBWG
TAF
KBWG 132320Z 1400/1424 35006KT P6SM BKN035
     FM140200 35005KT P6SM SCT030
     FM141400 07005KT P6SM FEW250
     FM142100 10004KT P6SM BKN100=

USA.gov is the U.S. government's official web portal to all federal, state and local government web resources and services.